createdAt,value
2023-03-21T00:04:51.361Z,13.70
2023-03-21T00:15:11.540Z,10.93
2023-03-21T00:20:16.950Z,14.52
2023-03-21T00:30:24.061Z,13.98
2023-03-21T00:35:57.834Z,10.07
2023-03-21T02:11:49.968Z,16.67
2023-03-21T02:17:05.281Z,19.17
2023-03-21T02:22:33.008Z,18.58
2023-03-21T02:27:46.216Z,22.75
2023-03-21T02:33:06.776Z,15.50
2023-03-21T02:38:17.085Z,27.05
2023-03-21T02:43:28.091Z,34.10
2023-03-21T02:48:49.741Z,21.38
2023-03-21T02:54:22.202Z,23.52
2023-03-21T02:59:25.126Z,32.08
2023-03-21T03:04:29.705Z,27.08
2023-03-21T03:09:49.056Z,33.60
2023-03-21T03:15:04.759Z,27.77
2023-03-21T03:20:21.772Z,27.52
2023-03-21T03:25:42.125Z,30.20
2023-03-21T03:31:05.607Z,28.25
2023-03-21T03:36:30.578Z,38.00
2023-03-21T03:42:04.210Z,34.45
2023-03-21T03:47:17.432Z,31.63
2023-03-21T03:52:28.570Z,32.92
2023-03-21T03:57:40.022Z,32.13
2023-03-21T04:02:43.690Z,31.85
2023-03-21T04:07:48.825Z,35.67
2023-03-21T04:12:54.067Z,37.75
2023-03-21T04:18:19.660Z,35.13
2023-03-21T04:23:23.267Z,31.42
2023-03-21T04:28:28.202Z,34.05
2023-03-21T04:33:40.743Z,32.97
2023-03-21T04:38:48.618Z,32.83
2023-03-21T04:43:54.830Z,34.42
2023-03-21T04:48:58.491Z,36.92
2023-03-21T04:54:02.379Z,31.60
2023-03-21T04:59:09.692Z,45.80
2023-03-21T05:04:14.766Z,37.55
2023-03-21T05:09:18.286Z,36.42
2023-03-21T05:14:25.209Z,42.55
2023-03-21T05:19:35.318Z,31.30
2023-03-21T05:24:42.023Z,36.20
2023-03-21T05:29:52.845Z,41.67
2023-03-21T05:34:56.654Z,37.75
2023-03-21T05:40:00.712Z,32.08
2023-03-21T05:45:10.510Z,37.13
2023-03-21T05:50:16.080Z,41.00
2023-03-21T05:55:25.950Z,34.72
2023-03-21T06:00:31.038Z,44.80
2023-03-21T06:05:56.019Z,49.75
2023-03-21T06:11:03.971Z,36.72
2023-03-21T06:16:11.923Z,37.03
2023-03-21T06:21:15.500Z,37.35
2023-03-21T06:26:23.227Z,38.28
2023-03-21T06:31:29.619Z,41.58
2023-03-21T06:36:38.649Z,37.70
2023-03-21T06:41:42.202Z,34.13
2023-03-21T06:46:47.327Z,42.58
2023-03-21T06:51:54.656Z,40.30
2023-03-21T06:56:58.336Z,39.25
2023-03-21T07:02:11.348Z,39.95
2023-03-21T07:07:24.951Z,36.00
2023-03-21T07:12:35.897Z,36.97
2023-03-21T07:18:00.977Z,38.63
2023-03-21T07:23:07.196Z,37.63
2023-03-21T07:28:11.077Z,46.03
2023-03-21T07:33:16.484Z,38.55
2023-03-21T07:38:21.645Z,38.58
2023-03-21T07:43:26.053Z,41.65
2023-03-21T07:48:31.895Z,38.88
2023-03-21T07:53:38.043Z,36.40
2023-03-21T07:58:42.007Z,33.80
2023-03-21T08:03:48.223Z,37.17
2023-03-21T08:08:51.715Z,33.95
2023-03-21T08:13:56.423Z,40.67
2023-03-21T08:19:01.503Z,43.80
2023-03-21T08:24:07.116Z,37.42
2023-03-21T08:29:11.041Z,35.40
2023-03-21T08:34:17.986Z,35.70
2023-03-21T08:39:24.165Z,41.00
2023-03-21T08:44:28.308Z,35.17
2023-03-21T08:49:34.730Z,38.63
2023-03-21T08:54:38.379Z,36.58
2023-03-21T08:59:41.791Z,38.50
2023-03-21T09:04:47.596Z,31.23
2023-03-21T09:10:08.184Z,32.20
2023-03-21T09:15:17.950Z,37.42
2023-03-21T09:20:30.748Z,34.15
2023-03-21T09:25:35.015Z,32.22
2023-03-21T09:30:39.096Z,32.53
2023-03-21T09:35:43.956Z,34.92
2023-03-21T09:41:05.114Z,37.00
2023-03-21T09:46:13.147Z,35.90
2023-03-21T09:51:19.503Z,30.95
2023-03-21T09:56:26.024Z,32.83
2023-03-21T10:01:41.855Z,29.65
2023-03-21T10:06:53.746Z,30.63
2023-03-21T10:12:02.067Z,28.20
2023-03-21T10:17:21.578Z,25.83
2023-03-21T10:22:26.692Z,28.55
2023-03-21T10:27:30.685Z,27.17
2023-03-21T10:32:35.915Z,28.30
2023-03-21T10:42:44.651Z,27.35
2023-03-21T10:47:49.407Z,24.98
2023-03-21T10:53:00.635Z,18.20
2023-03-21T10:58:08.851Z,23.88
2023-03-21T11:03:21.781Z,23.20
2023-03-21T11:08:27.538Z,27.02
2023-03-21T11:13:38.927Z,26.38
2023-03-21T11:18:43.958Z,16.60
2023-03-21T11:23:52.978Z,20.90
2023-03-21T11:28:57.460Z,19.50
2023-03-21T11:34:07.040Z,22.65
2023-03-21T11:39:30.352Z,18.05
2023-03-21T11:44:41.238Z,19.45
2023-03-21T11:49:44.942Z,19.15
2023-03-21T11:55:09.701Z,14.20
2023-03-21T12:00:22.652Z,18.27
2023-03-21T12:05:29.034Z,15.77
2023-03-21T12:10:44.385Z,15.57
2023-03-21T12:15:57.603Z,17.13
2023-03-21T12:21:06.411Z,16.38
2023-03-21T12:26:23.161Z,13.35
2023-03-21T12:31:32.069Z,17.17
2023-03-21T12:36:51.765Z,15.90
2023-03-21T12:42:08.794Z,15.15
2023-03-21T12:47:15.927Z,14.73
2023-03-21T12:52:25.686Z,12.57
2023-03-21T12:57:33.818Z,18.08
2023-03-21T13:02:42.215Z,14.80
2023-03-21T13:07:49.990Z,11.68
2023-03-21T13:13:15.568Z,12.10
2023-03-21T13:18:32.126Z,14.35
2023-03-21T13:23:38.605Z,13.43
2023-03-21T13:28:48.651Z,11.13
2023-03-21T13:33:54.790Z,16.38
2023-03-21T13:39:02.690Z,13.63
2023-03-21T13:44:20.001Z,11.13
2023-03-21T13:49:31.032Z,11.23
2023-03-21T13:54:52.749Z,16.95
2023-03-21T14:00:17.895Z,14.93
2023-03-21T14:05:24.567Z,13.07
2023-03-21T14:10:33.900Z,16.55
2023-03-21T14:15:54.928Z,17.10
2023-03-21T14:21:01.273Z,13.38
2023-03-21T14:26:06.738Z,13.68
2023-03-21T14:31:16.619Z,13.40
2023-03-21T14:36:25.090Z,13.20
2023-03-21T14:41:30.849Z,12.68
2023-03-21T14:46:36.152Z,11.02
2023-03-21T14:51:42.194Z,11.60
2023-03-21T14:56:50.812Z,14.98
2023-03-21T15:01:56.470Z,11.95
2023-03-21T15:07:04.984Z,14.02
2023-03-21T15:12:09.469Z,14.68
2023-03-21T15:17:15.463Z,14.68
2023-03-21T15:22:25.408Z,13.05
2023-03-21T15:27:32.707Z,11.68
2023-03-21T15:32:38.305Z,13.38
2023-03-21T15:37:42.441Z,14.43
2023-03-21T15:42:46.542Z,14.27
2023-03-21T15:47:54.505Z,12.57
2023-03-21T15:53:01.276Z,12.68
2023-03-21T15:58:09.796Z,11.45
2023-03-21T16:03:19.362Z,12.85
2023-03-21T16:08:28.339Z,10.10
2023-03-21T16:13:32.090Z,10.93
2023-03-21T16:18:37.683Z,11.93
2023-03-21T16:23:41.996Z,10.95
2023-03-21T16:28:46.444Z,7.95
2023-03-21T16:33:52.417Z,7.05
2023-03-21T16:38:56.567Z,8.95
2023-03-21T16:44:01.284Z,13.18
2023-03-21T16:49:16.296Z,8.90
2023-03-21T16:54:20.277Z,10.35
2023-03-21T16:59:23.639Z,10.85
2023-03-21T17:04:28.705Z,9.88
2023-03-21T17:09:32.285Z,12.43
2023-03-21T17:14:36.015Z,14.60
2023-03-21T17:19:41.442Z,11.93
2023-03-21T17:24:45.458Z,10.07
2023-03-21T17:29:49.042Z,11.00
2023-03-21T17:34:53.846Z,14.85
2023-03-21T17:39:57.963Z,13.82
2023-03-21T17:45:01.562Z,14.00
2023-03-21T17:50:15.170Z,12.73
2023-03-21T17:55:21.205Z,14.90
2023-03-21T18:00:28.161Z,12.38
2023-03-21T18:05:33.838Z,12.25
2023-03-21T18:10:38.470Z,13.80
2023-03-21T18:15:44.208Z,12.38
2023-03-21T18:20:53.057Z,13.90
2023-03-21T18:25:58.289Z,15.57
2023-03-21T18:31:11.633Z,21.63
2023-03-21T18:36:25.368Z,18.25
2023-03-21T18:41:30.630Z,18.30
2023-03-21T18:46:34.425Z,19.17
2023-03-21T18:51:40.433Z,19.67
2023-03-21T19:02:11.744Z,26.35
2023-03-21T19:07:16.745Z,23.45
2023-03-21T19:12:20.299Z,22.50
2023-03-21T19:18:21.910Z,19.52
2023-03-21T19:22:49.275Z,26.00
2023-03-21T19:27:52.821Z,22.38
2023-03-21T19:32:56.373Z,22.75
2023-03-21T19:38:01.082Z,28.25
2023-03-21T19:43:29.905Z,28.52
2023-03-21T19:48:30.090Z,30.95
2023-03-21T19:53:35.704Z,22.88
2023-03-21T19:58:39.609Z,27.60
2023-03-21T20:03:44.527Z,27.05
2023-03-21T20:09:30.824Z,28.23
2023-03-21T20:14:13.657Z,27.85
2023-03-21T20:19:20.115Z,30.60
2023-03-21T20:24:25.294Z,27.30
2023-03-21T20:35:02.031Z,31.67
2023-03-21T20:40:17.411Z,29.83
2023-03-21T20:45:21.306Z,33.13
2023-03-21T20:50:27.821Z,33.25
2023-03-21T20:55:34.192Z,28.75
2023-03-21T21:00:38.351Z,36.33
2023-03-21T21:05:44.430Z,39.20
2023-03-21T21:11:19.074Z,37.05
2023-03-21T21:16:14.874Z,32.33
2023-03-21T21:26:24.436Z,37.63
2023-03-21T21:31:28.720Z,39.25
2023-03-21T21:36:32.818Z,32.55
2023-03-21T21:41:37.935Z,33.85
2023-03-21T21:51:47.701Z,35.40
2023-03-21T21:56:54.699Z,31.48
2023-03-21T22:01:58.602Z,38.47
2023-03-21T22:07:02.449Z,38.92
2023-03-21T22:12:08.204Z,39.85
2023-03-21T22:17:12.501Z,38.80
2023-03-21T22:22:16.901Z,39.43
2023-03-21T22:27:22.576Z,35.33
2023-03-21T22:32:26.384Z,38.58
2023-03-21T22:37:31.545Z,41.50
2023-03-21T22:42:37.127Z,36.72
2023-03-21T22:47:41.136Z,39.55
2023-03-21T22:52:44.779Z,43.22
2023-03-21T22:57:50.225Z,33.00
2023-03-21T23:02:53.832Z,42.35
2023-03-21T23:07:57.421Z,39.92
2023-03-21T23:13:02.749Z,36.25
2023-03-21T23:18:06.580Z,39.85
2023-03-21T23:23:10.792Z,45.47
2023-03-21T23:28:19.169Z,39.42
2023-03-21T23:33:23.464Z,44.22
2023-03-21T23:38:27.752Z,42.43
2023-03-21T23:43:33.512Z,41.05
2023-03-21T23:48:38.462Z,33.28
2023-03-21T23:53:42.674Z,38.03
2023-03-21T23:58:49.967Z,31.38
